sensor_id;sensor_type;location;lat;lon;timestamp;temperature;humidity
9760;DHT22;4919;48.792;9.202;2023-03-14T00:00:21;12.10;58.00
9760;DHT22;4919;48.792;9.202;2023-03-14T00:03:06;12.10;63.60
9760;DHT22;4919;48.792;9.202;2023-03-14T00:05:51;12.00;68.80
9760;DHT22;4919;48.792;9.202;2023-03-14T00:08:36;12.10;74.80
9760;DHT22;4919;48.792;9.202;2023-03-14T00:11:22;12.00;80.50
9760;DHT22;4919;48.792;9.202;2023-03-14T00:14:07;12.00;85.00
9760;DHT22;4919;48.792;9.202;2023-03-14T00:16:52;12.00;93.10
9760;DHT22;4919;48.792;9.202;2023-03-14T00:19:37;12.00;96.80
9760;DHT22;4919;48.792;9.202;2023-03-14T00:22:22;11.90;99.90
9760;DHT22;4919;48.792;9.202;2023-03-14T00:25:09;11.90;99.90
9760;DHT22;4919;48.792;9.202;2023-03-14T00:27:54;11.90;99.90
9760;DHT22;4919;48.792;9.202;2023-03-14T00:30:39;11.80;99.90
9760;DHT22;4919;48.792;9.202;2023-03-14T00:33:24;11.80;99.90
9760;DHT22;4919;48.792;9.202;2023-03-14T00:36:14;11.80;99.90
9760;DHT22;4919;48.792;9.202;2023-03-14T00:38:59;11.80;99.90
9760;DHT22;4919;48.792;9.202;2023-03-14T00:41:44;11.80;99.90
9760;DHT22;4919;48.792;9.202;2023-03-14T00:44:29;11.70;99.90
9760;DHT22;4919;48.792;9.202;2023-03-14T00:47:13;11.70;99.90
9760;DHT22;4919;48.792;9.202;2023-03-14T00:49:58;11.70;99.90
9760;DHT22;4919;48.792;9.202;2023-03-14T00:52:43;11.60;99.90
9760;DHT22;4919;48.792;9.202;2023-03-14T00:55:28;11.60;99.90
9760;DHT22;4919;48.792;9.202;2023-03-14T00:58:15;11.60;99.90
9760;DHT22;4919;48.792;9.202;2023-03-14T01:01:09;11.60;99.90
9760;DHT22;4919;48.792;9.202;2023-03-14T01:03:54;11.60;99.90
9760;DHT22;4919;48.792;9.202;2023-03-14T01:06:39;11.60;99.90
9760;DHT22;4919;48.792;9.202;2023-03-14T01:09:24;11.60;99.90
9760;DHT22;4919;48.792;9.202;2023-03-14T01:12:09;11.50;99.90
9760;DHT22;4919;48.792;9.202;2023-03-14T01:14:54;11.50;99.90
9760;DHT22;4919;48.792;9.202;2023-03-14T01:17:39;11.50;99.90
9760;DHT22;4919;48.792;9.202;2023-03-14T01:20:24;11.40;99.90
9760;DHT22;4919;48.792;9.202;2023-03-14T01:23:08;11.50;99.90
9760;DHT22;4919;48.792;9.202;2023-03-14T01:25:54;11.50;99.90
9760;DHT22;4919;48.792;9.202;2023-03-14T01:28:39;11.60;99.90
9760;DHT22;4919;48.792;9.202;2023-03-14T01:31:24;11.60;99.90
9760;DHT22;4919;48.792;9.202;2023-03-14T01:34:09;11.50;99.90
9760;DHT22;4919;48.792;9.202;2023-03-14T01:36:54;11.50;99.90
9760;DHT22;4919;48.792;9.202;2023-03-14T01:39:39;11.50;99.90
9760;DHT22;4919;48.792;9.202;2023-03-14T01:42:24;11.40;99.90
9760;DHT22;4919;48.792;9.202;2023-03-14T01:46:06;11.40;99.90
9760;DHT22;4919;48.792;9.202;2023-03-14T01:49:03;11.40;99.90
9760;DHT22;4919;48.792;9.202;2023-03-14T01:51:58;11.30;99.90
9760;DHT22;4919;48.792;9.202;2023-03-14T01:54:47;11.30;99.90
9760;DHT22;4919;48.792;9.202;2023-03-14T01:57:43;11.30;99.90
9760;DHT22;4919;48.792;9.202;2023-03-14T02:00:28;11.30;99.90
9760;DHT22;4919;48.792;9.202;2023-03-14T02:03:18;11.20;99.90
9760;DHT22;4919;48.792;9.202;2023-03-14T02:06:06;11.20;99.90
9760;DHT22;4919;48.792;9.202;2023-03-14T02:08:52;11.20;99.90
9760;DHT22;4919;48.792;9.202;2023-03-14T02:11:38;11.20;99.90
9760;DHT22;4919;48.792;9.202;2023-03-14T02:14:34;11.20;99.90
9760;DHT22;4919;48.792;9.202;2023-03-14T02:17:20;11.10;99.90
9760;DHT22;4919;48.792;9.202;2023-03-14T02:23:00;11.10;99.90
9760;DHT22;4919;48.792;9.202;2023-03-14T02:25:58;11.10;99.90
9760;DHT22;4919;48.792;9.202;2023-03-14T02:28:45;11.10;99.90
9760;DHT22;4919;48.792;9.202;2023-03-14T02:31:30;11.10;99.90
9760;DHT22;4919;48.792;9.202;2023-03-14T02:34:15;11.20;99.90
9760;DHT22;4919;48.792;9.202;2023-03-14T02:37:00;11.20;99.90
9760;DHT22;4919;48.792;9.202;2023-03-14T02:39:46;11.10;99.90
9760;DHT22;4919;48.792;9.202;2023-03-14T02:42:31;11.10;99.90
9760;DHT22;4919;48.792;9.202;2023-03-14T02:48:04;11.20;99.90
9760;DHT22;4919;48.792;9.202;2023-03-14T02:50:54;11.10;99.90
9760;DHT22;4919;48.792;9.202;2023-03-14T02:53:39;11.10;99.90
9760;DHT22;4919;48.792;9.202;2023-03-14T02:56:24;11.10;99.90
9760;DHT22;4919;48.792;9.202;2023-03-14T02:59:09;11.10;99.90
9760;DHT22;4919;48.792;9.202;2023-03-14T03:01:54;11.00;99.90
9760;DHT22;4919;48.792;9.202;2023-03-14T03:04:39;10.90;99.90
9760;DHT22;4919;48.792;9.202;2023-03-14T03:07:24;11.00;99.90
9760;DHT22;4919;48.792;9.202;2023-03-14T03:10:09;10.90;99.90
9760;DHT22;4919;48.792;9.202;2023-03-14T03:12:54;10.90;99.90
9760;DHT22;4919;48.792;9.202;2023-03-14T03:15:39;10.90;99.90
9760;DHT22;4919;48.792;9.202;2023-03-14T03:18:23;10.90;99.90
9760;DHT22;4919;48.792;9.202;2023-03-14T03:21:08;10.90;99.90
9760;DHT22;4919;48.792;9.202;2023-03-14T03:23:53;11.00;99.90
9760;DHT22;4919;48.792;9.202;2023-03-14T03:26:38;11.00;99.90
9760;DHT22;4919;48.792;9.202;2023-03-14T03:29:23;11.00;99.90
9760;DHT22;4919;48.792;9.202;2023-03-14T03:32:08;11.00;99.90
9760;DHT22;4919;48.792;9.202;2023-03-14T03:34:53;10.90;99.90
9760;DHT22;4919;48.792;9.202;2023-03-14T03:37:38;10.90;99.90
9760;DHT22;4919;48.792;9.202;2023-03-14T03:40:22;11.00;99.90
9760;DHT22;4919;48.792;9.202;2023-03-14T03:43:07;11.00;99.90
9760;DHT22;4919;48.792;9.202;2023-03-14T03:45:52;10.90;99.90
9760;DHT22;4919;48.792;9.202;2023-03-14T03:48:37;10.80;99.90
9760;DHT22;4919;48.792;9.202;2023-03-14T03:51:22;10.80;99.90
9760;DHT22;4919;48.792;9.202;2023-03-14T03:54:07;10.80;99.90
9760;DHT22;4919;48.792;9.202;2023-03-14T03:56:52;10.80;99.90
9760;DHT22;4919;48.792;9.202;2023-03-14T03:59:36;10.70;99.90
9760;DHT22;4919;48.792;9.202;2023-03-14T04:02:21;10.80;99.90
9760;DHT22;4919;48.792;9.202;2023-03-14T04:05:07;10.70;99.90
9760;DHT22;4919;48.792;9.202;2023-03-14T04:07:51;10.80;99.90
9760;DHT22;4919;48.792;9.202;2023-03-14T04:10:36;10.70;99.90
9760;DHT22;4919;48.792;9.202;2023-03-14T04:13:21;10.60;99.90
9760;DHT22;4919;48.792;9.202;2023-03-14T04:16:14;10.60;99.90
9760;DHT22;4919;48.792;9.202;2023-03-14T04:19:01;10.60;99.90
9760;DHT22;4919;48.792;9.202;2023-03-14T04:21:46;10.70;99.90
9760;DHT22;4919;48.792;9.202;2023-03-14T04:24:31;10.60;99.90
9760;DHT22;4919;48.792;9.202;2023-03-14T04:27:16;10.60;99.90
9760;DHT22;4919;48.792;9.202;2023-03-14T04:30:01;10.60;99.90
9760;DHT22;4919;48.792;9.202;2023-03-14T04:32:46;10.60;99.90
9760;DHT22;4919;48.792;9.202;2023-03-14T04:35:31;10.60;99.90
9760;DHT22;4919;48.792;9.202;2023-03-14T04:38:16;10.60;99.90
9760;DHT22;4919;48.792;9.202;2023-03-14T04:41:01;10.50;99.90
9760;DHT22;4919;48.792;9.202;2023-03-14T04:43:45;10.60;99.90
9760;DHT22;4919;48.792;9.202;2023-03-14T04:46:30;10.60;99.90
9760;DHT22;4919;48.792;9.202;2023-03-14T04:49:15;10.60;99.90
9760;DHT22;4919;48.792;9.202;2023-03-14T04:52:00;10.50;99.90
9760;DHT22;4919;48.792;9.202;2023-03-14T04:54:44;10.40;99.90
9760;DHT22;4919;48.792;9.202;2023-03-14T04:57:29;10.50;99.90
9760;DHT22;4919;48.792;9.202;2023-03-14T05:00:14;10.40;99.90
9760;DHT22;4919;48.792;9.202;2023-03-14T05:02:59;10.40;99.90
9760;DHT22;4919;48.792;9.202;2023-03-14T05:05:44;10.50;99.90
9760;DHT22;4919;48.792;9.202;2023-03-14T05:08:29;10.40;99.90
9760;DHT22;4919;48.792;9.202;2023-03-14T05:11:14;10.40;99.90
9760;DHT22;4919;48.792;9.202;2023-03-14T05:13:59;10.40;99.90
9760;DHT22;4919;48.792;9.202;2023-03-14T05:16:44;10.60;99.90
9760;DHT22;4919;48.792;9.202;2023-03-14T05:19:29;10.60;99.90
9760;DHT22;4919;48.792;9.202;2023-03-14T05:22:14;10.50;99.90
9760;DHT22;4919;48.792;9.202;2023-03-14T05:24:59;10.40;99.90
9760;DHT22;4919;48.792;9.202;2023-03-14T05:27:43;10.40;99.90
9760;DHT22;4919;48.792;9.202;2023-03-14T05:30:28;10.40;99.90
9760;DHT22;4919;48.792;9.202;2023-03-14T05:33:14;10.30;99.90
9760;DHT22;4919;48.792;9.202;2023-03-14T05:35:58;10.40;99.90
9760;DHT22;4919;48.792;9.202;2023-03-14T05:38:43;10.40;99.90
9760;DHT22;4919;48.792;9.202;2023-03-14T05:41:28;10.40;99.90
9760;DHT22;4919;48.792;9.202;2023-03-14T05:44:13;10.50;99.90
9760;DHT22;4919;48.792;9.202;2023-03-14T05:46:58;10.40;99.90
9760;DHT22;4919;48.792;9.202;2023-03-14T05:49:43;10.50;99.90
9760;DHT22;4919;48.792;9.202;2023-03-14T05:52:27;10.50;99.90
9760;DHT22;4919;48.792;9.202;2023-03-14T05:55:12;10.60;91.30
9760;DHT22;4919;48.792;9.202;2023-03-14T05:57:57;10.60;81.10
9760;DHT22;4919;48.792;9.202;2023-03-14T06:00:45;10.60;82.50
9760;DHT22;4919;48.792;9.202;2023-03-14T06:03:30;10.70;50.40
9760;DHT22;4919;48.792;9.202;2023-03-14T06:06:14;10.80;39.10
9760;DHT22;4919;48.792;9.202;2023-03-14T06:08:59;10.90;32.60
9760;DHT22;4919;48.792;9.202;2023-03-14T06:11:44;10.90;23.80
9760;DHT22;4919;48.792;9.202;2023-03-14T06:14:29;10.80;25.80
9760;DHT22;4919;48.792;9.202;2023-03-14T06:17:15;10.90;25.30
9760;DHT22;4919;48.792;9.202;2023-03-14T06:20:00;10.80;27.80
9760;DHT22;4919;48.792;9.202;2023-03-14T06:22:45;10.90;23.50
9760;DHT22;4919;48.792;9.202;2023-03-14T06:25:29;10.80;25.00
9760;DHT22;4919;48.792;9.202;2023-03-14T06:28:14;10.90;22.90
9760;DHT22;4919;48.792;9.202;2023-03-14T06:30:59;11.00;15.10
9760;DHT22;4919;48.792;9.202;2023-03-14T06:33:45;11.10;10.50
9760;DHT22;4919;48.792;9.202;2023-03-14T06:36:30;11.10;6.80
9760;DHT22;4919;48.792;9.202;2023-03-14T06:39:14;11.10;3.20
9760;DHT22;4919;48.792;9.202;2023-03-14T06:41:59;11.20;3.20
9760;DHT22;4919;48.792;9.202;2023-03-14T06:44:44;11.20;18.00
9760;DHT22;4919;48.792;9.202;2023-03-14T06:47:29;11.30;1.00
9760;DHT22;4919;48.792;9.202;2023-03-14T06:50:14;11.30;1.00
9760;DHT22;4919;48.792;9.202;2023-03-14T06:52:59;11.30;1.00
9760;DHT22;4919;48.792;9.202;2023-03-14T06:55:43;11.30;1.00
9760;DHT22;4919;48.792;9.202;2023-03-14T06:58:29;11.40;1.00
9760;DHT22;4919;48.792;9.202;2023-03-14T07:01:21;11.30;1.00
9760;DHT22;4919;48.792;9.202;2023-03-14T07:04:09;11.40;1.00
9760;DHT22;4919;48.792;9.202;2023-03-14T07:06:53;11.50;1.00
9760;DHT22;4919;48.792;9.202;2023-03-14T07:09:38;11.50;1.00
9760;DHT22;4919;48.792;9.202;2023-03-14T07:12:23;11.50;1.00
9760;DHT22;4919;48.792;9.202;2023-03-14T07:15:08;11.50;1.00
9760;DHT22;4919;48.792;9.202;2023-03-14T07:17:53;11.40;1.00
9760;DHT22;4919;48.792;9.202;2023-03-14T07:20:38;11.40;1.00
9760;DHT22;4919;48.792;9.202;2023-03-14T07:23:23;11.40;1.00
9760;DHT22;4919;48.792;9.202;2023-03-14T07:26:07;11.30;1.00
9760;DHT22;4919;48.792;9.202;2023-03-14T07:28:52;11.40;1.00
9760;DHT22;4919;48.792;9.202;2023-03-14T07:31:37;11.40;1.00
9760;DHT22;4919;48.792;9.202;2023-03-14T07:34:22;11.40;1.00
9760;DHT22;4919;48.792;9.202;2023-03-14T07:37:07;11.50;1.00
9760;DHT22;4919;48.792;9.202;2023-03-14T07:39:52;11.50;1.00
9760;DHT22;4919;48.792;9.202;2023-03-14T07:42:37;11.50;1.00
9760;DHT22;4919;48.792;9.202;2023-03-14T07:45:21;11.50;1.00
9760;DHT22;4919;48.792;9.202;2023-03-14T07:48:06;11.50;1.00
9760;DHT22;4919;48.792;9.202;2023-03-14T07:50:52;11.50;1.00
9760;DHT22;4919;48.792;9.202;2023-03-14T07:53:37;11.40;1.00
9760;DHT22;4919;48.792;9.202;2023-03-14T07:56:22;11.50;1.00
9760;DHT22;4919;48.792;9.202;2023-03-14T07:59:07;11.50;1.00
9760;DHT22;4919;48.792;9.202;2023-03-14T08:01:52;11.70;1.00
9760;DHT22;4919;48.792;9.202;2023-03-14T08:04:37;12.00;1.00
9760;DHT22;4919;48.792;9.202;2023-03-14T08:07:21;12.10;1.00
9760;DHT22;4919;48.792;9.202;2023-03-14T08:10:07;12.10;1.00
9760;DHT22;4919;48.792;9.202;2023-03-14T08:12:58;12.00;1.00
9760;DHT22;4919;48.792;9.202;2023-03-14T08:15:47;12.10;1.00
9760;DHT22;4919;48.792;9.202;2023-03-14T08:18:32;12.10;1.00
9760;DHT22;4919;48.792;9.202;2023-03-14T08:21:17;12.20;1.00
9760;DHT22;4919;48.792;9.202;2023-03-14T08:24:02;12.20;1.00
9760;DHT22;4919;48.792;9.202;2023-03-14T08:26:47;12.30;1.00
9760;DHT22;4919;48.792;9.202;2023-03-14T08:29:32;12.30;1.00
9760;DHT22;4919;48.792;9.202;2023-03-14T08:32:17;12.20;1.00
9760;DHT22;4919;48.792;9.202;2023-03-14T08:35:03;12.20;1.00
9760;DHT22;4919;48.792;9.202;2023-03-14T08:37:48;12.00;1.00
9760;DHT22;4919;48.792;9.202;2023-03-14T08:40:33;12.10;1.00
9760;DHT22;4919;48.792;9.202;2023-03-14T08:43:17;12.10;1.00
9760;DHT22;4919;48.792;9.202;2023-03-14T08:46:03;12.10;1.00
9760;DHT22;4919;48.792;9.202;2023-03-14T08:48:48;12.20;1.00
9760;DHT22;4919;48.792;9.202;2023-03-14T08:51:32;12.20;1.00
9760;DHT22;4919;48.792;9.202;2023-03-14T08:54:17;12.10;1.00
9760;DHT22;4919;48.792;9.202;2023-03-14T08:57:02;12.10;1.00
9760;DHT22;4919;48.792;9.202;2023-03-14T08:59:47;12.10;1.00
9760;DHT22;4919;48.792;9.202;2023-03-14T09:02:32;12.10;1.00
9760;DHT22;4919;48.792;9.202;2023-03-14T09:05:17;12.10;1.00
9760;DHT22;4919;48.792;9.202;2023-03-14T09:08:02;12.20;1.00
9760;DHT22;4919;48.792;9.202;2023-03-14T09:10:47;12.20;1.00
9760;DHT22;4919;48.792;9.202;2023-03-14T09:13:32;12.30;1.00
9760;DHT22;4919;48.792;9.202;2023-03-14T09:16:17;12.50;1.00
9760;DHT22;4919;48.792;9.202;2023-03-14T09:19:02;12.80;1.00
9760;DHT22;4919;48.792;9.202;2023-03-14T09:21:46;13.50;1.00
9760;DHT22;4919;48.792;9.202;2023-03-14T09:24:31;13.70;1.00
9760;DHT22;4919;48.792;9.202;2023-03-14T09:27:16;13.70;1.00
9760;DHT22;4919;48.792;9.202;2023-03-14T09:30:02;14.00;1.00
9760;DHT22;4919;48.792;9.202;2023-03-14T09:32:47;14.40;1.00
9760;DHT22;4919;48.792;9.202;2023-03-14T09:35:33;14.70;1.00
9760;DHT22;4919;48.792;9.202;2023-03-14T09:38:18;14.50;1.00
9760;DHT22;4919;48.792;9.202;2023-03-14T09:41:13;14.50;1.00
9760;DHT22;4919;48.792;9.202;2023-03-14T09:44:13;14.90;1.00
9760;DHT22;4919;48.792;9.202;2023-03-14T09:47:10;15.00;1.00
9760;DHT22;4919;48.792;9.202;2023-03-14T09:49:56;15.00;1.00
9760;DHT22;4919;48.792;9.202;2023-03-14T09:52:44;15.10;1.00
9760;DHT22;4919;48.792;9.202;2023-03-14T09:55:31;14.70;1.00
9760;DHT22;4919;48.792;9.202;2023-03-14T09:58:20;14.50;1.00
9760;DHT22;4919;48.792;9.202;2023-03-14T10:01:07;14.20;1.00
9760;DHT22;4919;48.792;9.202;2023-03-14T10:03:55;14.00;1.00
9760;DHT22;4919;48.792;9.202;2023-03-14T10:06:40;13.90;1.00
9760;DHT22;4919;48.792;9.202;2023-03-14T10:09:25;13.70;1.00
9760;DHT22;4919;48.792;9.202;2023-03-14T10:12:10;13.60;1.00
9760;DHT22;4919;48.792;9.202;2023-03-14T10:14:55;13.60;1.00
9760;DHT22;4919;48.792;9.202;2023-03-14T10:17:51;13.50;1.00
9760;DHT22;4919;48.792;9.202;2023-03-14T10:20:38;13.50;1.00
9760;DHT22;4919;48.792;9.202;2023-03-14T10:23:27;13.40;1.00
9760;DHT22;4919;48.792;9.202;2023-03-14T10:26:16;13.50;1.00
9760;DHT22;4919;48.792;9.202;2023-03-14T10:29:11;13.50;1.00
9760;DHT22;4919;48.792;9.202;2023-03-14T10:32:02;13.40;1.00
9760;DHT22;4919;48.792;9.202;2023-03-14T10:37:55;13.40;1.00
9760;DHT22;4919;48.792;9.202;2023-03-14T10:40:47;13.40;1.00
9760;DHT22;4919;48.792;9.202;2023-03-14T10:43:33;13.40;1.00
9760;DHT22;4919;48.792;9.202;2023-03-14T10:46:20;13.40;1.00
9760;DHT22;4919;48.792;9.202;2023-03-14T10:49:06;13.50;1.00
9760;DHT22;4919;48.792;9.202;2023-03-14T10:51:51;13.40;1.00
9760;DHT22;4919;48.792;9.202;2023-03-14T10:54:35;13.40;1.00
9760;DHT22;4919;48.792;9.202;2023-03-14T10:57:20;13.30;1.00
9760;DHT22;4919;48.792;9.202;2023-03-14T11:00:09;13.30;1.00
9760;DHT22;4919;48.792;9.202;2023-03-14T11:06:09;13.40;1.00
9760;DHT22;4919;48.792;9.202;2023-03-14T11:09:14;13.30;1.00
9760;DHT22;4919;48.792;9.202;2023-03-14T11:30:39;13.30;1.00
9760;DHT22;4919;48.792;9.202;2023-03-14T11:33:38;13.30;1.00
9760;DHT22;4919;48.792;9.202;2023-03-14T11:36:38;13.30;1.00
9760;DHT22;4919;48.792;9.202;2023-03-14T11:39:26;13.30;1.00
9760;DHT22;4919;48.792;9.202;2023-03-14T11:42:16;13.30;1.00
9760;DHT22;4919;48.792;9.202;2023-03-14T11:45:02;13.30;1.00
9760;DHT22;4919;48.792;9.202;2023-03-14T11:47:57;13.20;1.00
9760;DHT22;4919;48.792;9.202;2023-03-14T11:50:44;13.10;1.00
9760;DHT22;4919;48.792;9.202;2023-03-14T11:53:43;12.90;1.00
9760;DHT22;4919;48.792;9.202;2023-03-14T11:56:37;12.60;1.00
9760;DHT22;4919;48.792;9.202;2023-03-14T11:59:29;12.50;1.00
9760;DHT22;4919;48.792;9.202;2023-03-14T12:05:46;11.70;47.90
9760;DHT22;4919;48.792;9.202;2023-03-14T12:08:53;11.60;83.30
9760;DHT22;4919;48.792;9.202;2023-03-14T12:11:54;11.60;99.90
9760;DHT22;4919;48.792;9.202;2023-03-14T12:14:46;11.50;99.90
9760;DHT22;4919;48.792;9.202;2023-03-14T12:17:42;11.60;99.90
9760;DHT22;4919;48.792;9.202;2023-03-14T12:20:27;12.00;33.60
9760;DHT22;4919;48.792;9.202;2023-03-14T12:23:12;12.00;16.00
9760;DHT22;4919;48.792;9.202;2023-03-14T12:26:27;12.10;16.10
9760;DHT22;4919;48.792;9.202;2023-03-14T12:29:15;12.30;10.80
9760;DHT22;4919;48.792;9.202;2023-03-14T12:34:45;12.60;1.00
9760;DHT22;4919;48.792;9.202;2023-03-14T12:37:36;12.70;1.00
9760;DHT22;4919;48.792;9.202;2023-03-14T12:40:29;12.80;1.00
9760;DHT22;4919;48.792;9.202;2023-03-14T12:43:34;12.90;1.00
9760;DHT22;4919;48.792;9.202;2023-03-14T12:49:05;13.20;1.00
9760;DHT22;4919;48.792;9.202;2023-03-14T12:51:58;13.40;1.00
9760;DHT22;4919;48.792;9.202;2023-03-14T12:55:10;13.60;1.00
9760;DHT22;4919;48.792;9.202;2023-03-14T12:58:31;13.70;1.00
9760;DHT22;4919;48.792;9.202;2023-03-14T13:01:18;13.50;1.00
9760;DHT22;4919;48.792;9.202;2023-03-14T13:04:08;13.40;1.00
9760;DHT22;4919;48.792;9.202;2023-03-14T13:06:56;13.40;1.00
9760;DHT22;4919;48.792;9.202;2023-03-14T13:10:00;13.50;1.00
9760;DHT22;4919;48.792;9.202;2023-03-14T13:15:46;13.60;1.00
9760;DHT22;4919;48.792;9.202;2023-03-14T13:18:36;13.60;1.00
9760;DHT22;4919;48.792;9.202;2023-03-14T13:21:24;13.60;1.00
9760;DHT22;4919;48.792;9.202;2023-03-14T13:24:26;13.40;1.00
9760;DHT22;4919;48.792;9.202;2023-03-14T13:27:19;13.30;1.00
9760;DHT22;4919;48.792;9.202;2023-03-14T13:30:21;13.40;1.00
9760;DHT22;4919;48.792;9.202;2023-03-14T13:33:06;13.50;1.00
9760;DHT22;4919;48.792;9.202;2023-03-14T13:38:41;12.90;1.00
9760;DHT22;4919;48.792;9.202;2023-03-14T13:41:27;13.10;1.00
9760;DHT22;4919;48.792;9.202;2023-03-14T13:44:29;13.00;1.00
9760;DHT22;4919;48.792;9.202;2023-03-14T13:47:19;12.80;1.00
9760;DHT22;4919;48.792;9.202;2023-03-14T13:50:04;13.00;1.00
9760;DHT22;4919;48.792;9.202;2023-03-14T13:52:55;13.20;1.00
9760;DHT22;4919;48.792;9.202;2023-03-14T13:55:40;13.30;1.00
9760;DHT22;4919;48.792;9.202;2023-03-14T13:58:28;13.50;1.00
9760;DHT22;4919;48.792;9.202;2023-03-14T14:01:25;13.60;1.00
9760;DHT22;4919;48.792;9.202;2023-03-14T14:04:16;13.80;1.00
9760;DHT22;4919;48.792;9.202;2023-03-14T14:07:08;14.00;1.00
9760;DHT22;4919;48.792;9.202;2023-03-14T14:09:54;14.00;1.00
9760;DHT22;4919;48.792;9.202;2023-03-14T14:13:00;13.90;1.00
9760;DHT22;4919;48.792;9.202;2023-03-14T14:15:49;13.90;1.00
9760;DHT22;4919;48.792;9.202;2023-03-14T14:18:36;14.00;1.00
9760;DHT22;4919;48.792;9.202;2023-03-14T14:21:21;14.00;1.00
9760;DHT22;4919;48.792;9.202;2023-03-14T14:24:10;14.10;1.00
9760;DHT22;4919;48.792;9.202;2023-03-14T14:27:08;14.00;1.00
9760;DHT22;4919;48.792;9.202;2023-03-14T14:33:21;14.10;1.00
9760;DHT22;4919;48.792;9.202;2023-03-14T14:42:03;14.10;1.00
9760;DHT22;4919;48.792;9.202;2023-03-14T14:44:49;13.80;1.00
9760;DHT22;4919;48.792;9.202;2023-03-14T14:47:34;13.70;1.00
9760;DHT22;4919;48.792;9.202;2023-03-14T14:50:31;13.70;1.00
9760;DHT22;4919;48.792;9.202;2023-03-14T14:53:34;13.70;1.00
9760;DHT22;4919;48.792;9.202;2023-03-14T14:56:27;13.50;1.00
9760;DHT22;4919;48.792;9.202;2023-03-14T14:59:41;13.50;1.00
9760;DHT22;4919;48.792;9.202;2023-03-14T15:02:40;13.40;1.00
9760;DHT22;4919;48.792;9.202;2023-03-14T15:05:27;13.40;1.00
9760;DHT22;4919;48.792;9.202;2023-03-14T15:08:12;13.40;1.00
9760;DHT22;4919;48.792;9.202;2023-03-14T15:10:57;13.30;1.00
9760;DHT22;4919;48.792;9.202;2023-03-14T15:13:42;13.30;1.00
9760;DHT22;4919;48.792;9.202;2023-03-14T15:16:29;13.20;1.00
9760;DHT22;4919;48.792;9.202;2023-03-14T15:19:20;13.20;1.00
9760;DHT22;4919;48.792;9.202;2023-03-14T15:22:11;12.90;1.00
9760;DHT22;4919;48.792;9.202;2023-03-14T15:24:56;12.70;1.00
9760;DHT22;4919;48.792;9.202;2023-03-14T15:27:41;12.50;6.60
9760;DHT22;4919;48.792;9.202;2023-03-14T15:30:26;12.10;1.00
9760;DHT22;4919;48.792;9.202;2023-03-14T15:33:11;10.10;1.00
9760;DHT22;4919;48.792;9.202;2023-03-14T15:35:56;8.10;99.90
9760;DHT22;4919;48.792;9.202;2023-03-14T15:38:41;6.90;1.00
9760;DHT22;4919;48.792;9.202;2023-03-14T15:41:27;6.30;39.90
9760;DHT22;4919;48.792;9.202;2023-03-14T15:44:12;6.10;99.90
9760;DHT22;4919;48.792;9.202;2023-03-14T15:46:57;5.70;99.90
9760;DHT22;4919;48.792;9.202;2023-03-14T15:49:42;5.70;99.90
9760;DHT22;4919;48.792;9.202;2023-03-14T15:52:26;5.50;99.90
9760;DHT22;4919;48.792;9.202;2023-03-14T15:55:11;5.40;99.90
9760;DHT22;4919;48.792;9.202;2023-03-14T15:57:57;5.20;99.90
9760;DHT22;4919;48.792;9.202;2023-03-14T16:00:41;5.00;99.90
9760;DHT22;4919;48.792;9.202;2023-03-14T16:03:28;4.90;99.90
9760;DHT22;4919;48.792;9.202;2023-03-14T16:06:13;4.70;99.90
9760;DHT22;4919;48.792;9.202;2023-03-14T16:08:58;4.60;99.90
9760;DHT22;4919;48.792;9.202;2023-03-14T16:11:43;4.20;99.90
9760;DHT22;4919;48.792;9.202;2023-03-14T16:14:27;4.20;99.90
9760;DHT22;4919;48.792;9.202;2023-03-14T16:17:12;3.80;99.90
9760;DHT22;4919;48.792;9.202;2023-03-14T16:19:57;3.40;99.90
9760;DHT22;4919;48.792;9.202;2023-03-14T16:22:42;3.10;99.90
9760;DHT22;4919;48.792;9.202;2023-03-14T16:25:27;2.90;1.00
9760;DHT22;4919;48.792;9.202;2023-03-14T16:28:12;2.70;1.00
9760;DHT22;4919;48.792;9.202;2023-03-14T16:31:01;2.80;1.00
9760;DHT22;4919;48.792;9.202;2023-03-14T16:33:46;2.50;1.00
9760;DHT22;4919;48.792;9.202;2023-03-14T16:36:31;2.30;1.00
9760;DHT22;4919;48.792;9.202;2023-03-14T16:39:16;2.10;1.00
9760;DHT22;4919;48.792;9.202;2023-03-14T16:42:02;1.70;1.00
9760;DHT22;4919;48.792;9.202;2023-03-14T16:44:47;1.70;1.00
9760;DHT22;4919;48.792;9.202;2023-03-14T16:47:31;1.70;1.00
9760;DHT22;4919;48.792;9.202;2023-03-14T16:50:16;2.00;1.00
9760;DHT22;4919;48.792;9.202;2023-03-14T16:53:01;2.00;3.90
9760;DHT22;4919;48.792;9.202;2023-03-14T16:55:46;2.00;5.50
9760;DHT22;4919;48.792;9.202;2023-03-14T16:58:33;1.90;1.00
9760;DHT22;4919;48.792;9.202;2023-03-14T17:01:17;2.00;1.00
9760;DHT22;4919;48.792;9.202;2023-03-14T17:04:02;2.00;1.00
9760;DHT22;4919;48.792;9.202;2023-03-14T17:06:47;2.10;13.70
9760;DHT22;4919;48.792;9.202;2023-03-14T17:09:32;2.00;10.50
9760;DHT22;4919;48.792;9.202;2023-03-14T17:12:17;2.00;10.80
9760;DHT22;4919;48.792;9.202;2023-03-14T17:15:02;1.90;1.00
9760;DHT22;4919;48.792;9.202;2023-03-14T17:17:47;1.90;12.10
9760;DHT22;4919;48.792;9.202;2023-03-14T17:20:33;1.90;16.00
9760;DHT22;4919;48.792;9.202;2023-03-14T17:23:18;2.00;27.80
9760;DHT22;4919;48.792;9.202;2023-03-14T17:26:03;2.00;30.00
9760;DHT22;4919;48.792;9.202;2023-03-14T17:28:48;2.10;51.30
9760;DHT22;4919;48.792;9.202;2023-03-14T17:31:33;2.20;81.60
9760;DHT22;4919;48.792;9.202;2023-03-14T17:34:18;2.00;68.30
9760;DHT22;4919;48.792;9.202;2023-03-14T17:37:03;2.00;52.50
9760;DHT22;4919;48.792;9.202;2023-03-14T17:39:48;2.00;60.50
9760;DHT22;4919;48.792;9.202;2023-03-14T17:42:33;1.90;51.50
9760;DHT22;4919;48.792;9.202;2023-03-14T17:45:18;1.90;56.70
9760;DHT22;4919;48.792;9.202;2023-03-14T17:48:02;2.00;81.90
9760;DHT22;4919;48.792;9.202;2023-03-14T17:50:47;1.90;87.70
9760;DHT22;4919;48.792;9.202;2023-03-14T17:53:32;1.90;84.80
9760;DHT22;4919;48.792;9.202;2023-03-14T17:56:17;1.90;92.90
9760;DHT22;4919;48.792;9.202;2023-03-14T17:59:02;2.00;98.80
9760;DHT22;4919;48.792;9.202;2023-03-14T18:01:47;1.90;99.90
9760;DHT22;4919;48.792;9.202;2023-03-14T18:04:32;2.00;99.90
9760;DHT22;4919;48.792;9.202;2023-03-14T18:07:17;2.00;99.90
9760;DHT22;4919;48.792;9.202;2023-03-14T18:10:04;2.20;99.90
9760;DHT22;4919;48.792;9.202;2023-03-14T18:12:48;2.20;99.90
9760;DHT22;4919;48.792;9.202;2023-03-14T18:15:33;2.20;99.90
9760;DHT22;4919;48.792;9.202;2023-03-14T18:18:19;2.20;99.90
9760;DHT22;4919;48.792;9.202;2023-03-14T18:21:03;2.20;99.90
9760;DHT22;4919;48.792;9.202;2023-03-14T18:23:48;2.30;99.90
9760;DHT22;4919;48.792;9.202;2023-03-14T18:26:33;2.40;99.90
9760;DHT22;4919;48.792;9.202;2023-03-14T18:29:18;2.40;99.90
9760;DHT22;4919;48.792;9.202;2023-03-14T18:32:03;2.40;99.90
9760;DHT22;4919;48.792;9.202;2023-03-14T18:34:48;2.40;99.90
9760;DHT22;4919;48.792;9.202;2023-03-14T18:37:32;2.50;99.90
9760;DHT22;4919;48.792;9.202;2023-03-14T18:40:17;2.50;99.90
9760;DHT22;4919;48.792;9.202;2023-03-14T18:43:02;2.60;99.90
9760;DHT22;4919;48.792;9.202;2023-03-14T18:45:47;2.60;99.90
9760;DHT22;4919;48.792;9.202;2023-03-14T18:48:32;2.60;99.90
9760;DHT22;4919;48.792;9.202;2023-03-14T18:51:17;2.60;99.90
9760;DHT22;4919;48.792;9.202;2023-03-14T18:54:02;2.60;99.90
9760;DHT22;4919;48.792;9.202;2023-03-14T18:56:47;2.70;99.90
9760;DHT22;4919;48.792;9.202;2023-03-14T18:59:32;2.60;99.90
9760;DHT22;4919;48.792;9.202;2023-03-14T19:02:17;2.60;99.90
9760;DHT22;4919;48.792;9.202;2023-03-14T19:05:01;2.60;99.90
9760;DHT22;4919;48.792;9.202;2023-03-14T19:07:46;2.70;99.90
9760;DHT22;4919;48.792;9.202;2023-03-14T19:10:31;2.70;99.90
9760;DHT22;4919;48.792;9.202;2023-03-14T19:13:16;2.80;99.90
9760;DHT22;4919;48.792;9.202;2023-03-14T19:16:01;2.80;99.90